Portada
METAR-TAF:

METAR-TAF

Aeroports :

Manado, Indonèsia

latitud: 01-32N, longitud: 124-55E, altitud: 80 m

Observació

L'informe es va fer fa 34 minuts, a les 23:30 UTC
Vent 1 kt amb direcció variable
Temperatura 27°C
Humitat 84%
Pressió 1011 hPa
Visibilitat 10 km o més
Escasses núvols a una alçada de 2200 ft

METAR: WAMM 152330Z VRB01KT 9999 FEW022 27/24 Q1011 NOSIG

Hora: 07:04 (00:04 UTC)

Pronòstic

L'informe es va fer fa 1 hora i 4 minuts, a les 23:00 UTC
Pronòstic vàlid del 16 a les 00 UTC al 17 a les 06 UTC
Vent 12 kt del Oest
Visibilitat 10 km o més
Núvols disperses a una alçada de 2100 ft
Probabilitat 30% :
Temporalment
l' 16 a les 04 UTC al 16 a les 07 UTC
Visibilitat: 5000 m
Escasses núvols a una alçada de 1800 ft, Cumulonimbus.
pluja
Evolucionant progressivament
l' 16 a les 12 UTC al 16 a les 13 UTC
Vent 3 kt amb direcció variable

TAF: WAMM 152300Z 1600/1706 27012KT 9999 SCT021 PROB30 TEMPO 1604/1607 5000 RA FEW018CB BECMG 1612/1613 VRB03KT

Observacions i pronòstics meteorològics de més de 4000 aeroports (METAR i TAF).

Les estacions disponibles són els punts grocs i vermells al mapa.

Posi el ratolí al punt desitjat per veure el nom de l'estació.

Feu clic per veure les observacions i els pronòstics meteorològics.

Per canviar el mapa: feu clic els botons verds amb una creu de color negre per apropar; al botó verd amb un guió per allunyar la imatge; o en les fletxes verdes per a mapes adjacents.


METAR-TAF: